sensor_id;sensor_type;location;lat;lon;timestamp;P1;durP1;ratioP1;P2;durP2;ratioP2
41466;SDS011;27205;53.690;19.948;2022-08-03T00:02:23;4.10;;;3.00;;
41466;SDS011;27205;53.690;19.948;2022-08-03T00:07:26;2.70;;;2.00;;
41466;SDS011;27205;53.690;19.948;2022-08-03T00:12:30;3.50;;;1.90;;
41466;SDS011;27205;53.690;19.948;2022-08-03T00:17:33;3.20;;;2.20;;
41466;SDS011;27205;53.690;19.948;2022-08-03T00:22:55;3.40;;;2.30;;
41466;SDS011;27205;53.690;19.948;2022-08-03T00:27:59;2.60;;;2.00;;
41466;SDS011;27205;53.690;19.948;2022-08-03T00:33:04;2.40;;;2.20;;
41466;SDS011;27205;53.690;19.948;2022-08-03T00:38:09;3.50;;;2.00;;
41466;SDS011;27205;53.690;19.948;2022-08-03T00:43:13;2.20;;;1.70;;
41466;SDS011;27205;53.690;19.948;2022-08-03T00:48:16;4.80;;;2.40;;
41466;SDS011;27205;53.690;19.948;2022-08-03T00:53:35;2.70;;;2.00;;
41466;SDS011;27205;53.690;19.948;2022-08-03T00:58:39;5.00;;;2.30;;
41466;SDS011;27205;53.690;19.948;2022-08-03T01:03:43;4.50;;;1.80;;
41466;SDS011;27205;53.690;19.948;2022-08-03T01:14:08;4.40;;;1.90;;
41466;SDS011;27205;53.690;19.948;2022-08-03T01:25:02;8.50;;;2.30;;
41466;SDS011;27205;53.690;19.948;2022-08-03T01:30:12;4.00;;;1.80;;
41466;SDS011;27205;53.690;19.948;2022-08-03T01:35:19;2.10;;;1.70;;
41466;SDS011;27205;53.690;19.948;2022-08-03T01:40:40;3.30;;;1.90;;
41466;SDS011;27205;53.690;19.948;2022-08-03T01:45:46;6.20;;;2.40;;
41466;SDS011;27205;53.690;19.948;2022-08-03T01:50:51;2.90;;;1.90;;
41466;SDS011;27205;53.690;19.948;2022-08-03T01:55:57;3.00;;;1.80;;
41466;SDS011;27205;53.690;19.948;2022-08-03T02:01:04;4.90;;;2.60;;
41466;SDS011;27205;53.690;19.948;2022-08-03T02:06:09;3.50;;;2.40;;
41466;SDS011;27205;53.690;19.948;2022-08-03T02:11:34;4.70;;;2.60;;
41466;SDS011;27205;53.690;19.948;2022-08-03T02:16:39;3.00;;;2.20;;
41466;SDS011;27205;53.690;19.948;2022-08-03T02:21:43;2.50;;;2.10;;
41466;SDS011;27205;53.690;19.948;2022-08-03T02:27:04;3.20;;;2.20;;
41466;SDS011;27205;53.690;19.948;2022-08-03T02:32:12;5.80;;;2.60;;
41466;SDS011;27205;53.690;19.948;2022-08-03T02:37:20;3.40;;;2.40;;
41466;SDS011;27205;53.690;19.948;2022-08-03T02:42:28;3.60;;;1.90;;
41466;SDS011;27205;53.690;19.948;2022-08-03T02:47:34;2.90;;;2.00;;
41466;SDS011;27205;53.690;19.948;2022-08-03T02:52:56;4.80;;;2.20;;
41466;SDS011;27205;53.690;19.948;2022-08-03T02:58:01;3.90;;;2.30;;
41466;SDS011;27205;53.690;19.948;2022-08-03T03:03:06;2.80;;;2.40;;
41466;SDS011;27205;53.690;19.948;2022-08-03T03:08:11;4.30;;;2.10;;
41466;SDS011;27205;53.690;19.948;2022-08-03T03:13:22;3.70;;;1.60;;
41466;SDS011;27205;53.690;19.948;2022-08-03T03:18:27;3.10;;;2.30;;
41466;SDS011;27205;53.690;19.948;2022-08-03T03:23:34;2.60;;;2.40;;
41466;SDS011;27205;53.690;19.948;2022-08-03T03:28:39;3.50;;;2.80;;
41466;SDS011;27205;53.690;19.948;2022-08-03T03:33:43;3.00;;;2.20;;
41466;SDS011;27205;53.690;19.948;2022-08-03T03:38:48;2.70;;;2.50;;
41466;SDS011;27205;53.690;19.948;2022-08-03T03:43:55;5.40;;;2.40;;
41466;SDS011;27205;53.690;19.948;2022-08-03T03:48:58;3.30;;;2.50;;
41466;SDS011;27205;53.690;19.948;2022-08-03T03:54:02;3.30;;;2.30;;
41466;SDS011;27205;53.690;19.948;2022-08-03T03:59:09;4.30;;;3.00;;
41466;SDS011;27205;53.690;19.948;2022-08-03T04:04:13;8.00;;;2.70;;
41466;SDS011;27205;53.690;19.948;2022-08-03T04:09:35;3.10;;;2.20;;
41466;SDS011;27205;53.690;19.948;2022-08-03T04:15:04;5.70;;;2.40;;
41466;SDS011;27205;53.690;19.948;2022-08-03T04:20:11;2.90;;;2.60;;
41466;SDS011;27205;53.690;19.948;2022-08-03T04:25:16;13.90;;;4.10;;
41466;SDS011;27205;53.690;19.948;2022-08-03T04:30:21;7.20;;;2.50;;
41466;SDS011;27205;53.690;19.948;2022-08-03T04:35:30;2.40;;;2.20;;
41466;SDS011;27205;53.690;19.948;2022-08-03T04:40:55;5.10;;;3.10;;
41466;SDS011;27205;53.690;19.948;2022-08-03T04:45:59;5.90;;;3.40;;
41466;SDS011;27205;53.690;19.948;2022-08-03T04:51:04;5.90;;;2.80;;
41466;SDS011;27205;53.690;19.948;2022-08-03T04:56:08;3.60;;;2.30;;
41466;SDS011;27205;53.690;19.948;2022-08-03T05:01:11;14.90;;;3.40;;
41466;SDS011;27205;53.690;19.948;2022-08-03T05:11:18;21.30;;;6.40;;
41466;SDS011;27205;53.690;19.948;2022-08-03T05:16:21;12.10;;;4.00;;
41466;SDS011;27205;53.690;19.948;2022-08-03T05:21:27;6.90;;;3.20;;
41466;SDS011;27205;53.690;19.948;2022-08-03T05:26:51;3.70;;;2.50;;
41466;SDS011;27205;53.690;19.948;2022-08-03T05:31:55;6.20;;;2.80;;
41466;SDS011;27205;53.690;19.948;2022-08-03T05:36:58;6.20;;;2.70;;
41466;SDS011;27205;53.690;19.948;2022-08-03T05:42:05;5.60;;;2.90;;
41466;SDS011;27205;53.690;19.948;2022-08-03T05:47:08;5.20;;;2.20;;
41466;SDS011;27205;53.690;19.948;2022-08-03T05:52:12;2.20;;;1.60;;
41466;SDS011;27205;53.690;19.948;2022-08-03T05:57:18;2.80;;;1.50;;
41466;SDS011;27205;53.690;19.948;2022-08-03T06:02:23;2.60;;;1.80;;
41466;SDS011;27205;53.690;19.948;2022-08-03T06:07:26;2.90;;;1.90;;
41466;SDS011;27205;53.690;19.948;2022-08-03T06:12:30;3.40;;;1.70;;
41466;SDS011;27205;53.690;19.948;2022-08-03T06:17:33;2.30;;;1.70;;
41466;SDS011;27205;53.690;19.948;2022-08-03T06:22:39;3.40;;;1.90;;
41466;SDS011;27205;53.690;19.948;2022-08-03T06:27:53;6.40;;;2.00;;
41466;SDS011;27205;53.690;19.948;2022-08-03T06:32:56;2.90;;;1.60;;
41466;SDS011;27205;53.690;19.948;2022-08-03T06:37:59;2.60;;;1.90;;
41466;SDS011;27205;53.690;19.948;2022-08-03T06:43:03;2.70;;;1.80;;
41466;SDS011;27205;53.690;19.948;2022-08-03T06:48:11;3.00;;;1.60;;
41466;SDS011;27205;53.690;19.948;2022-08-03T06:53:15;3.00;;;2.30;;
41466;SDS011;27205;53.690;19.948;2022-08-03T06:58:23;2.90;;;1.40;;
41466;SDS011;27205;53.690;19.948;2022-08-03T07:03:26;4.40;;;2.50;;
41466;SDS011;27205;53.690;19.948;2022-08-03T07:08:29;2.50;;;1.60;;
41466;SDS011;27205;53.690;19.948;2022-08-03T07:13:35;4.50;;;1.80;;
41466;SDS011;27205;53.690;19.948;2022-08-03T07:18:39;1.90;;;1.40;;
41466;SDS011;27205;53.690;19.948;2022-08-03T07:23:42;3.30;;;1.60;;
41466;SDS011;27205;53.690;19.948;2022-08-03T07:28:46;1.70;;;1.30;;
41466;SDS011;27205;53.690;19.948;2022-08-03T07:33:49;1.70;;;1.30;;
41466;SDS011;27205;53.690;19.948;2022-08-03T07:38:52;4.30;;;2.30;;
41466;SDS011;27205;53.690;19.948;2022-08-03T07:43:56;4.30;;;3.50;;
41466;SDS011;27205;53.690;19.948;2022-08-03T07:49:02;1.80;;;1.50;;
41466;SDS011;27205;53.690;19.948;2022-08-03T07:54:06;5.00;;;4.00;;
41466;SDS011;27205;53.690;19.948;2022-08-03T07:59:11;2.90;;;2.30;;
41466;SDS011;27205;53.690;19.948;2022-08-03T08:04:15;2.90;;;1.90;;
41466;SDS011;27205;53.690;19.948;2022-08-03T08:09:18;2.00;;;1.80;;
41466;SDS011;27205;53.690;19.948;2022-08-03T08:14:22;3.30;;;2.50;;
41466;SDS011;27205;53.690;19.948;2022-08-03T08:19:25;4.60;;;2.90;;
41466;SDS011;27205;53.690;19.948;2022-08-03T08:24:32;2.10;;;1.90;;
41466;SDS011;27205;53.690;19.948;2022-08-03T08:29:38;2.40;;;1.60;;
41466;SDS011;27205;53.690;19.948;2022-08-03T08:34:55;1.80;;;1.70;;
41466;SDS011;27205;53.690;19.948;2022-08-03T08:39:59;2.00;;;1.70;;
41466;SDS011;27205;53.690;19.948;2022-08-03T08:45:04;1.20;;;1.10;;
41466;SDS011;27205;53.690;19.948;2022-08-03T08:50:10;4.10;;;1.70;;
41466;SDS011;27205;53.690;19.948;2022-08-03T08:55:29;1.50;;;1.00;;
41466;SDS011;27205;53.690;19.948;2022-08-03T09:00:54;1.70;;;1.10;;
41466;SDS011;27205;53.690;19.948;2022-08-03T09:05:58;4.10;;;1.20;;
41466;SDS011;27205;53.690;19.948;2022-08-03T09:11:04;3.90;;;1.40;;
41466;SDS011;27205;53.690;19.948;2022-08-03T09:16:20;0.90;;;0.90;;
41466;SDS011;27205;53.690;19.948;2022-08-03T09:21:25;4.30;;;2.30;;
41466;SDS011;27205;53.690;19.948;2022-08-03T09:26:36;2.30;;;1.50;;
41466;SDS011;27205;53.690;19.948;2022-08-03T09:31:40;1.90;;;1.70;;
41466;SDS011;27205;53.690;19.948;2022-08-03T09:36:47;3.30;;;1.50;;
41466;SDS011;27205;53.690;19.948;2022-08-03T09:42:05;5.20;;;2.60;;
41466;SDS011;27205;53.690;19.948;2022-08-03T09:47:09;2.10;;;1.60;;
41466;SDS011;27205;53.690;19.948;2022-08-03T09:52:17;2.50;;;1.30;;
41466;SDS011;27205;53.690;19.948;2022-08-03T09:57:41;3.30;;;1.60;;
41466;SDS011;27205;53.690;19.948;2022-08-03T10:02:48;1.30;;;1.20;;
41466;SDS011;27205;53.690;19.948;2022-08-03T10:08:12;1.80;;;1.10;;
41466;SDS011;27205;53.690;19.948;2022-08-03T10:13:17;4.70;;;1.20;;
41466;SDS011;27205;53.690;19.948;2022-08-03T10:18:20;2.10;;;1.10;;
41466;SDS011;27205;53.690;19.948;2022-08-03T10:23:24;2.70;;;1.70;;
41466;SDS011;27205;53.690;19.948;2022-08-03T10:28:39;3.30;;;1.80;;
41466;SDS011;27205;53.690;19.948;2022-08-03T10:33:50;3.70;;;1.50;;
41466;SDS011;27205;53.690;19.948;2022-08-03T10:38:57;2.40;;;1.50;;
41466;SDS011;27205;53.690;19.948;2022-08-03T10:44:02;2.20;;;1.30;;
41466;SDS011;27205;53.690;19.948;2022-08-03T10:49:13;2.40;;;1.50;;
41466;SDS011;27205;53.690;19.948;2022-08-03T10:54:44;3.70;;;1.30;;
41466;SDS011;27205;53.690;19.948;2022-08-03T11:00:15;2.20;;;1.50;;
41466;SDS011;27205;53.690;19.948;2022-08-03T11:05:27;2.10;;;1.50;;
41466;SDS011;27205;53.690;19.948;2022-08-03T11:10:31;3.20;;;1.30;;
41466;SDS011;27205;53.690;19.948;2022-08-03T11:15:35;4.00;;;1.50;;
41466;SDS011;27205;53.690;19.948;2022-08-03T11:26:17;2.00;;;1.30;;
41466;SDS011;27205;53.690;19.948;2022-08-03T11:47:28;1.90;;;0.80;;
41466;SDS011;27205;53.690;19.948;2022-08-03T11:52:37;2.90;;;1.20;;
41466;SDS011;27205;53.690;19.948;2022-08-03T11:57:43;2.10;;;1.10;;
41466;SDS011;27205;53.690;19.948;2022-08-03T12:03:10;2.50;;;1.70;;
41466;SDS011;27205;53.690;19.948;2022-08-03T12:08:16;2.70;;;1.20;;
41466;SDS011;27205;53.690;19.948;2022-08-03T12:13:37;3.30;;;1.10;;
41466;SDS011;27205;53.690;19.948;2022-08-03T12:19:05;4.50;;;2.50;;
41466;SDS011;27205;53.690;19.948;2022-08-03T12:24:08;3.10;;;1.80;;
41466;SDS011;27205;53.690;19.948;2022-08-03T12:29:19;4.70;;;2.80;;
41466;SDS011;27205;53.690;19.948;2022-08-03T12:34:46;2.10;;;1.40;;
41466;SDS011;27205;53.690;19.948;2022-08-03T12:39:53;2.00;;;1.10;;
41466;SDS011;27205;53.690;19.948;2022-08-03T12:45:19;4.10;;;1.10;;
41466;SDS011;27205;53.690;19.948;2022-08-03T12:50:31;1.80;;;1.60;;
41466;SDS011;27205;53.690;19.948;2022-08-03T12:55:37;3.90;;;1.10;;
41466;SDS011;27205;53.690;19.948;2022-08-03T13:01:02;5.40;;;1.30;;
41466;SDS011;27205;53.690;19.948;2022-08-03T13:06:16;2.60;;;1.40;;
41466;SDS011;27205;53.690;19.948;2022-08-03T13:16:46;4.70;;;1.40;;
41466;SDS011;27205;53.690;19.948;2022-08-03T13:21:51;2.80;;;1.40;;
41466;SDS011;27205;53.690;19.948;2022-08-03T13:27:06;2.70;;;1.00;;
41466;SDS011;27205;53.690;19.948;2022-08-03T13:32:29;2.60;;;1.50;;
41466;SDS011;27205;53.690;19.948;2022-08-03T13:37:33;3.40;;;1.40;;
41466;SDS011;27205;53.690;19.948;2022-08-03T13:42:37;2.90;;;1.40;;
41466;SDS011;27205;53.690;19.948;2022-08-03T13:47:41;2.50;;;1.30;;
41466;SDS011;27205;53.690;19.948;2022-08-03T13:52:44;6.20;;;1.70;;
41466;SDS011;27205;53.690;19.948;2022-08-03T13:57:50;7.00;;;2.10;;
41466;SDS011;27205;53.690;19.948;2022-08-03T14:03:08;2.50;;;1.60;;
41466;SDS011;27205;53.690;19.948;2022-08-03T14:08:16;1.90;;;1.30;;
41466;SDS011;27205;53.690;19.948;2022-08-03T14:13:20;3.60;;;0.90;;
41466;SDS011;27205;53.690;19.948;2022-08-03T14:18:24;3.80;;;1.50;;
41466;SDS011;27205;53.690;19.948;2022-08-03T14:23:31;2.10;;;1.40;;
41466;SDS011;27205;53.690;19.948;2022-08-03T14:28:34;3.90;;;1.40;;
41466;SDS011;27205;53.690;19.948;2022-08-03T14:33:38;1.40;;;1.10;;
41466;SDS011;27205;53.690;19.948;2022-08-03T14:38:42;1.80;;;1.00;;
41466;SDS011;27205;53.690;19.948;2022-08-03T14:43:46;1.90;;;1.30;;
41466;SDS011;27205;53.690;19.948;2022-08-03T14:49:04;4.40;;;1.80;;
41466;SDS011;27205;53.690;19.948;2022-08-03T14:54:27;4.60;;;3.60;;
41466;SDS011;27205;53.690;19.948;2022-08-03T14:59:33;8.10;;;7.70;;
41466;SDS011;27205;53.690;19.948;2022-08-03T15:04:56;18.10;;;17.20;;
41466;SDS011;27205;53.690;19.948;2022-08-03T15:09:59;31.50;;;30.00;;
41466;SDS011;27205;53.690;19.948;2022-08-03T15:15:04;43.40;;;41.70;;
41466;SDS011;27205;53.690;19.948;2022-08-03T15:20:08;57.60;;;55.40;;
41466;SDS011;27205;53.690;19.948;2022-08-03T15:25:32;70.80;;;68.10;;
41466;SDS011;27205;53.690;19.948;2022-08-03T15:30:55;82.30;;;79.10;;
41466;SDS011;27205;53.690;19.948;2022-08-03T15:35:58;87.00;;;83.70;;
41466;SDS011;27205;53.690;19.948;2022-08-03T15:41:02;84.60;;;81.40;;
41466;SDS011;27205;53.690;19.948;2022-08-03T15:46:05;82.50;;;79.30;;
41466;SDS011;27205;53.690;19.948;2022-08-03T15:51:29;80.40;;;77.30;;
41466;SDS011;27205;53.690;19.948;2022-08-03T15:56:32;71.00;;;68.30;;
41466;SDS011;27205;53.690;19.948;2022-08-03T16:01:36;63.40;;;60.90;;
41466;SDS011;27205;53.690;19.948;2022-08-03T16:06:39;56.40;;;54.20;;
41466;SDS011;27205;53.690;19.948;2022-08-03T16:11:44;50.40;;;48.40;;
41466;SDS011;27205;53.690;19.948;2022-08-03T16:16:47;45.00;;;43.20;;
41466;SDS011;27205;53.690;19.948;2022-08-03T16:21:50;38.10;;;36.60;;
41466;SDS011;27205;53.690;19.948;2022-08-03T16:26:54;33.10;;;31.80;;
41466;SDS011;27205;53.690;19.948;2022-08-03T16:31:58;25.50;;;24.50;;
41466;SDS011;27205;53.690;19.948;2022-08-03T16:37:11;20.60;;;19.80;;
41466;SDS011;27205;53.690;19.948;2022-08-03T16:42:35;16.10;;;15.50;;
41466;SDS011;27205;53.690;19.948;2022-08-03T16:47:39;13.10;;;12.60;;
41466;SDS011;27205;53.690;19.948;2022-08-03T16:52:43;10.10;;;9.80;;
41466;SDS011;27205;53.690;19.948;2022-08-03T16:57:49;9.30;;;8.90;;
41466;SDS011;27205;53.690;19.948;2022-08-03T17:03:02;7.80;;;7.40;;
41466;SDS011;27205;53.690;19.948;2022-08-03T17:08:17;7.10;;;6.60;;
41466;SDS011;27205;53.690;19.948;2022-08-03T17:13:28;5.30;;;4.80;;
41466;SDS011;27205;53.690;19.948;2022-08-03T17:18:51;4.40;;;4.00;;
41466;SDS011;27205;53.690;19.948;2022-08-03T17:29:22;4.30;;;2.70;;
41466;SDS011;27205;53.690;19.948;2022-08-03T17:34:31;5.40;;;1.80;;
41466;SDS011;27205;53.690;19.948;2022-08-03T17:39:34;2.60;;;1.80;;
41466;SDS011;27205;53.690;19.948;2022-08-03T17:44:59;5.90;;;2.20;;
41466;SDS011;27205;53.690;19.948;2022-08-03T17:50:23;5.30;;;1.90;;
41466;SDS011;27205;53.690;19.948;2022-08-03T17:55:38;9.60;;;2.80;;
41466;SDS011;27205;53.690;19.948;2022-08-03T18:01:00;2.70;;;1.80;;
41466;SDS011;27205;53.690;19.948;2022-08-03T18:06:43;6.70;;;2.10;;
41466;SDS011;27205;53.690;19.948;2022-08-03T18:11:58;5.00;;;2.20;;
41466;SDS011;27205;53.690;19.948;2022-08-03T18:17:06;6.90;;;2.10;;
41466;SDS011;27205;53.690;19.948;2022-08-03T18:22:19;4.60;;;1.80;;
41466;SDS011;27205;53.690;19.948;2022-08-03T18:27:26;10.80;;;3.40;;
41466;SDS011;27205;53.690;19.948;2022-08-03T18:32:47;8.10;;;2.60;;
41466;SDS011;27205;53.690;19.948;2022-08-03T18:38:02;4.70;;;2.40;;
41466;SDS011;27205;53.690;19.948;2022-08-03T18:43:11;5.40;;;2.40;;
41466;SDS011;27205;53.690;19.948;2022-08-03T18:48:22;4.70;;;2.20;;
41466;SDS011;27205;53.690;19.948;2022-08-03T18:53:37;8.60;;;2.30;;
41466;SDS011;27205;53.690;19.948;2022-08-03T18:59:15;4.40;;;2.20;;
41466;SDS011;27205;53.690;19.948;2022-08-03T19:09:46;6.70;;;2.00;;
41466;SDS011;27205;53.690;19.948;2022-08-03T19:15:02;5.30;;;1.90;;
41466;SDS011;27205;53.690;19.948;2022-08-03T19:20:18;4.90;;;2.20;;
41466;SDS011;27205;53.690;19.948;2022-08-03T19:25:24;4.50;;;2.30;;
41466;SDS011;27205;53.690;19.948;2022-08-03T19:30:37;4.50;;;2.10;;
41466;SDS011;27205;53.690;19.948;2022-08-03T19:35:45;9.50;;;2.50;;
41466;SDS011;27205;53.690;19.948;2022-08-03T19:41:00;6.10;;;2.60;;
41466;SDS011;27205;53.690;19.948;2022-08-03T19:46:11;6.10;;;2.90;;
41466;SDS011;27205;53.690;19.948;2022-08-03T19:51:15;6.10;;;2.90;;
41466;SDS011;27205;53.690;19.948;2022-08-03T19:56:28;9.10;;;3.70;;
41466;SDS011;27205;53.690;19.948;2022-08-03T20:01:32;7.40;;;2.90;;
41466;SDS011;27205;53.690;19.948;2022-08-03T20:06:52;5.40;;;2.40;;
41466;SDS011;27205;53.690;19.948;2022-08-03T20:11:58;5.60;;;2.90;;
41466;SDS011;27205;53.690;19.948;2022-08-03T20:17:02;4.30;;;2.80;;
41466;SDS011;27205;53.690;19.948;2022-08-03T20:22:10;5.80;;;3.40;;
41466;SDS011;27205;53.690;19.948;2022-08-03T20:27:16;7.00;;;3.10;;
41466;SDS011;27205;53.690;19.948;2022-08-03T20:32:21;6.40;;;3.20;;
41466;SDS011;27205;53.690;19.948;2022-08-03T20:37:26;6.20;;;3.00;;
41466;SDS011;27205;53.690;19.948;2022-08-03T20:42:32;8.20;;;3.90;;
41466;SDS011;27205;53.690;19.948;2022-08-03T20:47:35;11.60;;;5.40;;
41466;SDS011;27205;53.690;19.948;2022-08-03T20:52:52;9.10;;;5.30;;
41466;SDS011;27205;53.690;19.948;2022-08-03T20:57:57;9.00;;;4.10;;
41466;SDS011;27205;53.690;19.948;2022-08-03T21:03:01;5.10;;;2.80;;
41466;SDS011;27205;53.690;19.948;2022-08-03T21:08:05;33.90;;;8.80;;
41466;SDS011;27205;53.690;19.948;2022-08-03T21:13:29;9.60;;;4.80;;
41466;SDS011;27205;53.690;19.948;2022-08-03T21:19:12;7.10;;;4.30;;
41466;SDS011;27205;53.690;19.948;2022-08-03T21:24:08;8.10;;;3.90;;
41466;SDS011;27205;53.690;19.948;2022-08-03T21:29:17;5.00;;;4.10;;
41466;SDS011;27205;53.690;19.948;2022-08-03T21:34:20;4.70;;;4.20;;
41466;SDS011;27205;53.690;19.948;2022-08-03T21:39:24;4.30;;;3.90;;
41466;SDS011;27205;53.690;19.948;2022-08-03T21:44:27;5.50;;;4.40;;
41466;SDS011;27205;53.690;19.948;2022-08-03T21:49:30;5.50;;;3.70;;
41466;SDS011;27205;53.690;19.948;2022-08-03T21:54:57;4.80;;;4.10;;
41466;SDS011;27205;53.690;19.948;2022-08-03T22:00:09;6.80;;;4.80;;
41466;SDS011;27205;53.690;19.948;2022-08-03T22:05:15;5.90;;;4.20;;
41466;SDS011;27205;53.690;19.948;2022-08-03T22:10:30;5.40;;;3.90;;
41466;SDS011;27205;53.690;19.948;2022-08-03T22:15:34;4.40;;;4.00;;
41466;SDS011;27205;53.690;19.948;2022-08-03T22:20:37;5.10;;;4.60;;
41466;SDS011;27205;53.690;19.948;2022-08-03T22:25:41;5.40;;;4.90;;
41466;SDS011;27205;53.690;19.948;2022-08-03T22:30:44;5.30;;;4.90;;
41466;SDS011;27205;53.690;19.948;2022-08-03T22:35:50;5.70;;;5.20;;
41466;SDS011;27205;53.690;19.948;2022-08-03T22:40:58;6.30;;;5.20;;
41466;SDS011;27205;53.690;19.948;2022-08-03T22:46:03;5.70;;;4.70;;
41466;SDS011;27205;53.690;19.948;2022-08-03T22:51:13;6.20;;;4.50;;
41466;SDS011;27205;53.690;19.948;2022-08-03T22:56:18;4.30;;;4.00;;
41466;SDS011;27205;53.690;19.948;2022-08-03T23:01:21;6.60;;;5.10;;
41466;SDS011;27205;53.690;19.948;2022-08-03T23:06:31;4.40;;;4.10;;
41466;SDS011;27205;53.690;19.948;2022-08-03T23:11:38;5.70;;;4.00;;
41466;SDS011;27205;53.690;19.948;2022-08-03T23:16:48;3.80;;;3.00;;
41466;SDS011;27205;53.690;19.948;2022-08-03T23:21:58;3.80;;;3.50;;
41466;SDS011;27205;53.690;19.948;2022-08-03T23:27:07;5.70;;;3.40;;
41466;SDS011;27205;53.690;19.948;2022-08-03T23:37:16;3.80;;;2.80;;
41466;SDS011;27205;53.690;19.948;2022-08-03T23:42:21;3.40;;;3.10;;
41466;SDS011;27205;53.690;19.948;2022-08-03T23:47:26;3.70;;;3.30;;
41466;SDS011;27205;53.690;19.948;2022-08-03T23:53:01;6.50;;;4.80;;
41466;SDS011;27205;53.690;19.948;2022-08-03T23:58:21;3.90;;;3.60;;
